Time;durP1;ratioP1;P1;durP2;ratioP2;P2;SDS_P1;SDS_P2;PMS_P1;PMS_P2;Temp;Humidity;BMP_temperature;BMP_pressure;BME280_temperature;BME280_humidity;BME280_pressure;Samples;Min_cycle;Max_cycle;Signal;HPM_P1;HPM_P2
2021/05/13 00:00:16;;;;;;;1.98;1.88;;;22.30;55.40;;;;;;5099174;28;20032;-45
2021/05/13 00:02:42;;;;;;;2.40;2.20;;;22.30;55.30;;;;;;5096986;28;20035;-43
2021/05/13 00:05:08;;;;;;;1.77;1.65;;;22.40;55.10;;;;;;5103299;28;20073;-43
2021/05/13 00:07:34;;;;;;;1.83;1.70;;;22.40;55.10;;;;;;5099947;28;20512;-43
2021/05/13 00:09:59;;;;;;;1.88;1.73;;;22.40;55.20;;;;;;5098730;28;20016;-43
2021/05/13 00:12:47;;;;;;;1.85;1.70;;;22.40;55.10;;;;;;5100607;28;20047;-43
2021/05/13 00:15:17;;;;;;;2.25;1.88;;;22.30;55.30;;;;;;5099187;28;20060;-44
2021/05/13 00:17:43;;;;;;;1.88;1.77;;;22.30;55.20;;;;;;5097324;28;20497;-39
2021/05/13 00:20:11;;;;;;;1.88;1.77;;;22.30;55.20;;;;;;5095892;28;20028;-43
2021/05/13 00:22:37;;;;;;;2.10;1.90;;;22.40;55.00;;;;;;5097761;28;20080;-43
2021/05/13 00:25:04;;;;;;;1.83;1.67;;;22.50;54.90;;;;;;5102880;28;20072;-40
2021/05/13 00:27:30;;;;;;;2.20;2.00;;;22.40;55.00;;;;;;5074082;28;20059;-43
2021/05/13 00:29:55;;;;;;;2.20;2.00;;;22.40;55.00;;;;;;5099820;28;20024;-41
2021/05/13 00:32:21;;;;;;;1.98;1.88;;;22.40;54.80;;;;;;5100974;28;20116;-42
2021/05/13 00:34:46;;;;;;;1.85;1.75;;;22.40;55.00;;;;;;5099313;28;20501;-43
2021/05/13 00:37:12;;;;;;;1.70;1.60;;;22.40;54.90;;;;;;5100969;28;20043;-42
2021/05/13 00:39:37;;;;;;;1.33;1.23;;;22.30;54.90;;;;;;5097420;28;20114;-41
2021/05/13 00:42:03;;;;;;;1.73;1.63;;;22.30;55.00;;;;;;5098058;28;20027;-43
2021/05/13 00:44:28;;;;;;;1.20;1.20;;;22.40;54.60;;;;;;5100387;28;20040;-42
2021/05/13 00:46:54;;;;;;;1.63;1.52;;;22.40;54.70;;;;;;5080684;28;20114;-41
2021/05/13 00:49:21;;;;;;;1.65;1.50;;;22.30;54.80;;;;;;5100177;28;20086;-42
2021/05/13 00:51:46;;;;;;;2.08;1.40;;;22.30;54.90;;;;;;5104007;28;20054;-41
2021/05/13 00:54:12;;;;;;;1.80;1.70;;;22.40;54.90;;;;;;5079992;28;20019;-43
2021/05/13 00:56:38;;;;;;;1.55;1.45;;;22.40;54.90;;;;;;5079837;28;20033;-44
2021/05/13 00:59:07;;;;;;;1.65;1.55;;;22.40;54.70;;;;;;5096138;28;20024;-44
2021/05/13 01:04:05;;;;;;;1.45;1.35;;;22.40;54.60;;;;;;5097236;28;20032;-45
2021/05/13 01:06:31;;;;;;;2.38;1.30;;;22.40;54.60;;;;;;5101211;28;20032;-45
2021/05/13 01:08:56;;;;;;;2.33;1.65;;;22.40;54.60;;;;;;5100970;28;20026;-43
2021/05/13 01:11:22;;;;;;;1.30;1.20;;;22.40;54.50;;;;;;5103711;28;20031;-44
2021/05/13 01:14:02;;;;;;;1.50;1.38;;;22.50;54.40;;;;;;5081325;28;20024;-43
2021/05/13 01:16:43;;;;;;;1.38;1.27;;;22.50;54.30;;;;;;5081975;28;20306;-43
2021/05/13 01:19:09;;;;;;;1.40;1.30;;;22.30;54.60;;;;;;5099047;28;20024;-43
2021/05/13 01:21:41;;;;;;;1.60;1.50;;;22.30;54.70;;;;;;5093443;28;20443;-44
2021/05/13 01:24:07;;;;;;;1.80;1.70;;;22.40;54.50;;;;;;5101597;28;20025;-41
2021/05/13 01:26:32;;;;;;;1.30;1.20;;;22.40;54.60;;;;;;5092061;28;20039;-39
2021/05/13 01:29:01;;;;;;;1.13;1.10;;;22.50;54.40;;;;;;5094211;28;20028;-41
2021/05/13 01:31:27;;;;;;;1.35;1.25;;;22.50;54.20;;;;;;5098749;28;20630;-40
2021/05/13 01:33:52;;;;;;;1.10;1.10;;;22.60;54.00;;;;;;5103897;28;20047;-41
2021/05/13 01:36:18;;;;;;;1.48;1.38;;;22.60;53.90;;;;;;5081924;28;20040;-41
2021/05/13 01:38:43;;;;;;;1.27;1.27;;;22.70;53.70;;;;;;5099979;28;20048;-40
2021/05/13 01:41:09;;;;;;;1.50;1.40;;;22.60;53.70;;;;;;5105647;28;20023;-40
2021/05/13 01:43:34;;;;;;;1.20;1.20;;;22.60;53.60;;;;;;5081151;28;20028;-41
2021/05/13 01:46:00;;;;;;;1.20;1.10;;;22.70;53.70;;;;;;5096352;28;20545;-41
2021/05/13 01:48:29;;;;;;;1.15;1.10;;;22.70;54.30;;;;;;5101099;28;20051;-41
2021/05/13 01:50:55;;;;;;;1.33;1.23;;;22.70;53.60;;;;;;5100220;28;20028;-41
2021/05/13 01:53:20;;;;;;;1.00;1.00;;;22.60;53.60;;;;;;5095873;28;20028;-41
2021/05/13 01:55:46;;;;;;;1.40;1.30;;;22.60;53.70;;;;;;5101161;28;20455;-40
2021/05/13 01:58:12;;;;;;;1.10;1.00;;;22.60;53.60;;;;;;5099473;28;20990;-40
2021/05/13 02:00:38;;;;;;;1.17;1.10;;;22.60;53.50;;;;;;5095534;28;20529;-41
2021/05/13 02:03:04;;;;;;;1.30;1.20;;;22.60;53.70;;;;;;5096802;28;20038;-41
2021/05/13 02:05:29;;;;;;;1.38;0.93;;;22.60;53.50;;;;;;5105412;28;20030;-41
2021/05/13 02:07:56;;;;;;;0.88;0.88;;;22.60;53.60;;;;;;5104530;28;20024;-41
2021/05/13 02:10:21;;;;;;;1.35;0.95;;;22.50;53.60;;;;;;5102837;28;20020;-41
2021/05/13 02:12:48;;;;;;;1.27;1.17;;;22.60;53.70;;;;;;5108016;28;20038;-41
2021/05/13 02:15:16;;;;;;;1.13;1.13;;;22.60;54.30;;;;;;5092762;28;20035;-43
2021/05/13 02:17:41;;;;;;;0.95;0.95;;;22.60;53.50;;;;;;5100201;28;20028;-42
2021/05/13 02:20:10;;;;;;;0.95;0.95;;;22.50;53.70;;;;;;5112362;28;20031;-41
2021/05/13 02:22:35;;;;;;;1.13;1.02;;;22.50;53.80;;;;;;5091779;28;20459;-44
2021/05/13 02:25:01;;;;;;;1.25;1.20;;;22.50;54.30;;;;;;5107736;28;20020;-41
2021/05/13 02:27:26;;;;;;;0.80;0.80;;;22.50;53.60;;;;;;5107081;28;20077;-42
2021/05/13 02:29:52;;;;;;;0.80;0.80;;;22.50;53.90;;;;;;5091920;28;20031;-43
2021/05/13 02:32:18;;;;;;;1.08;1.08;;;22.40;54.00;;;;;;5105647;28;20413;-45
2021/05/13 02:34:43;;;;;;;0.80;0.80;;;22.40;54.10;;;;;;5104809;28;20035;-44
2021/05/13 02:37:09;;;;;;;1.10;1.00;;;22.40;54.10;;;;;;5085965;28;20114;-44
2021/05/13 02:39:34;;;;;;;1.08;0.80;;;22.30;54.20;;;;;;5104509;28;20032;-45
2021/05/13 02:42:00;;;;;;;1.25;0.90;;;22.40;54.10;;;;;;5103707;28;20026;-46
2021/05/13 02:44:26;;;;;;;0.80;0.80;;;22.40;53.90;;;;;;5105931;28;20505;-44
2021/05/13 02:46:51;;;;;;;0.90;0.90;;;22.40;54.00;;;;;;5100578;28;20028;-46
2021/05/13 02:49:17;;;;;;;1.00;1.00;;;22.40;54.10;;;;;;5085659;28;20035;-45
2021/05/13 02:51:43;;;;;;;0.75;0.70;;;22.30;54.10;;;;;;5084628;28;20038;-44
2021/05/13 02:54:08;;;;;;;1.33;0.98;;;22.40;54.00;;;;;;5105690;28;20035;-45
2021/05/13 02:56:34;;;;;;;0.90;0.88;;;22.40;53.90;;;;;;5101539;28;20024;-42
2021/05/13 02:59:00;;;;;;;1.75;1.08;;;22.40;53.90;;;;;;5105669;28;20085;-42
2021/05/13 03:01:26;;;;;;;1.55;0.93;;;22.40;53.80;;;;;;5103804;28;20051;-43
2021/05/13 03:03:53;;;;;;;0.90;0.90;;;22.40;53.70;;;;;;5106313;28;20034;-40
2021/05/13 03:06:19;;;;;;;0.80;0.80;;;22.50;53.70;;;;;;5109149;28;20511;-43
2021/05/13 03:08:46;;;;;;;1.00;1.00;;;22.50;53.70;;;;;;5107180;28;20081;-42
2021/05/13 03:11:11;;;;;;;0.80;0.80;;;22.50;53.70;;;;;;5113588;28;20027;-43
2021/05/13 03:13:37;;;;;;;0.70;0.70;;;22.50;53.60;;;;;;5111376;28;20089;-42
2021/05/13 03:16:03;;;;;;;0.73;0.65;;;22.40;53.80;;;;;;5111297;28;20030;-41
2021/05/13 03:18:31;;;;;;;0.60;0.60;;;22.50;53.70;;;;;;5110382;28;20389;-42
2021/05/13 03:21:03;;;;;;;0.50;0.50;;;22.40;53.80;;;;;;5096118;28;20020;-41
2021/05/13 03:23:43;;;;;;;0.50;0.50;;;22.40;53.90;;;;;;5093627;28;20397;-43
2021/05/13 03:26:09;;;;;;;0.95;0.95;;;22.40;53.80;;;;;;5105213;28;20071;-42
2021/05/13 03:28:34;;;;;;;0.80;0.80;;;22.40;53.90;;;;;;5109956;28;20067;-42
2021/05/13 03:31:00;;;;;;;0.73;0.73;;;22.40;53.80;;;;;;5110976;28;20024;-41
2021/05/13 03:33:25;;;;;;;0.57;0.57;;;22.40;53.80;;;;;;5110944;28;20036;-41
2021/05/13 03:35:51;;;;;;;0.80;0.80;;;22.30;53.80;;;;;;5111198;28;20500;-41
2021/05/13 03:38:17;;;;;;;1.00;1.00;;;22.40;53.80;;;;;;5115352;28;20138;-41
2021/05/13 03:40:42;;;;;;;0.70;0.70;;;22.40;53.80;;;;;;5111398;28;20043;-41
2021/05/13 03:43:08;;;;;;;0.90;0.90;;;22.40;53.80;;;;;;5110599;28;20028;-41
2021/05/13 03:45:34;;;;;;;0.70;0.70;;;22.40;53.70;;;;;;5110674;28;20080;-41
2021/05/13 03:48:02;;;;;;;0.73;0.73;;;22.30;53.80;;;;;;5108900;28;20509;-41
2021/05/13 03:50:29;;;;;;;0.60;0.60;;;22.30;53.90;;;;;;5086225;28;20035;-42
2021/05/13 03:52:55;;;;;;;0.70;0.70;;;22.30;53.90;;;;;;5092719;28;20032;-42
2021/05/13 03:55:20;;;;;;;0.50;0.50;;;22.30;53.80;;;;;;5108607;28;20027;-41
2021/05/13 03:57:46;;;;;;;1.35;0.60;;;22.30;53.80;;;;;;5093029;28;20024;-42
2021/05/13 04:00:13;;;;;;;0.63;0.63;;;22.40;53.80;;;;;;5110680;27;20027;-41
2021/05/13 04:02:40;;;;;;;0.68;0.60;;;22.30;53.70;;;;;;5113376;27;20077;-42
2021/05/13 04:05:06;;;;;;;0.60;0.60;;;22.30;53.70;;;;;;5102163;28;20032;-42
2021/05/13 04:07:35;;;;;;;0.73;0.63;;;22.40;53.70;;;;;;5110703;28;20039;-41
2021/05/13 04:10:02;;;;;;;0.77;0.77;;;22.30;53.80;;;;;;5112255;28;20098;-41
2021/05/13 04:12:27;;;;;;;0.70;0.68;;;22.30;53.90;;;;;;5094739;28;20100;-47
2021/05/13 04:14:54;;;;;;;1.05;0.60;;;22.30;53.80;;;;;;5110191;28;20032;-43
2021/05/13 04:17:20;;;;;;;0.60;0.60;;;22.20;53.90;;;;;;5113433;28;20106;-42
2021/05/13 04:19:46;;;;;;;0.50;0.50;;;22.30;53.90;;;;;;5111190;28;20099;-43
2021/05/13 04:22:12;;;;;;;0.50;0.50;;;22.20;54.00;;;;;;5110012;28;20023;-44
2021/05/13 04:24:38;;;;;;;0.60;0.60;;;22.20;54.00;;;;;;5094711;28;20178;-45
2021/05/13 04:27:04;;;;;;;0.60;0.60;;;22.20;53.80;;;;;;5110063;28;20028;-43
2021/05/13 04:29:30;;;;;;;0.70;0.70;;;22.30;53.80;;;;;;5092516;28;20463;-43
2021/05/13 04:31:55;;;;;;;0.75;0.75;;;22.20;53.90;;;;;;5111180;28;20098;-43
2021/05/13 04:34:21;;;;;;;1.80;0.70;;;22.20;53.90;;;;;;5110654;28;20048;-43
2021/05/13 04:36:46;;;;;;;0.70;0.63;;;22.20;53.90;;;;;;5109538;28;20030;-43
2021/05/13 04:39:12;;;;;;;0.50;0.50;;;22.20;53.90;;;;;;5111224;28;20031;-39
2021/05/13 04:41:39;;;;;;;0.60;0.60;;;22.30;53.80;;;;;;5111447;28;20046;-43
2021/05/13 04:44:06;;;;;;;0.68;0.68;;;22.30;53.80;;;;;;5094462;28;20531;-45
2021/05/13 04:46:32;;;;;;;0.60;0.60;;;22.30;53.80;;;;;;5111028;28;20497;-43
2021/05/13 04:51:28;;;;;;;0.80;0.80;;;22.20;53.80;;;;;;5109447;28;20040;-40
2021/05/13 04:53:53;;;;;;;0.80;0.80;;;22.30;53.80;;;;;;5092332;28;20107;-43
2021/05/13 04:56:20;;;;;;;0.88;0.60;;;22.20;54.00;;;;;;5093948;28;20460;-40
2021/05/13 04:58:45;;;;;;;0.70;0.70;;;22.10;54.60;;;;;;5106977;28;20020;-42
2021/05/13 05:01:11;;;;;;;0.60;0.60;;;22.20;53.90;;;;;;5105441;28;20028;-41
2021/05/13 05:03:37;;;;;;;0.77;0.77;;;22.10;54.20;;;;;;5107874;28;20111;-44
2021/05/13 05:06:02;;;;;;;0.98;0.50;;;22.00;54.20;;;;;;5101735;28;20023;-42
2021/05/13 05:08:28;;;;;;;0.63;0.55;;;22.00;54.80;;;;;;5099692;28;20086;-40
2021/05/13 05:10:53;;;;;;;0.63;0.63;;;22.00;54.20;;;;;;5103099;28;20036;-41
2021/05/13 05:13:19;;;;;;;0.57;0.57;;;22.00;54.30;;;;;;5109875;28;20031;-41
2021/05/13 05:15:44;;;;;;;0.73;0.73;;;22.00;54.20;;;;;;5107471;28;20020;-43
2021/05/13 05:18:20;;;;;;;0.80;0.80;;;22.00;54.20;;;;;;5102225;28;20027;-44
2021/05/13 05:20:45;;;;;;;1.33;0.70;;;22.00;54.80;;;;;;5100640;28;20074;-40
2021/05/13 05:23:11;;;;;;;0.85;0.70;;;22.10;54.20;;;;;;5109507;28;20019;-43
2021/05/13 05:25:37;;;;;;;0.90;0.88;;;22.10;54.10;;;;;;5108281;28;20409;-42
2021/05/13 05:28:04;;;;;;;0.80;0.80;;;22.10;54.60;;;;;;5106575;28;20024;-44
2021/05/13 05:30:33;;;;;;;1.05;1.00;;;22.10;53.90;;;;;;5105229;28;20020;-41
2021/05/13 05:32:59;;;;;;;1.10;1.10;;;22.10;54.60;;;;;;5100564;28;20126;-42
2021/05/13 05:35:26;;;;;;;0.68;0.68;;;22.10;54.10;;;;;;5103288;28;20027;-42
2021/05/13 05:37:52;;;;;;;0.75;0.75;;;22.00;54.20;;;;;;5102595;28;20410;-43
2021/05/13 05:40:18;;;;;;;0.77;0.77;;;22.00;54.20;;;;;;5108153;28;20095;-42
2021/05/13 05:42:44;;;;;;;0.90;0.90;;;22.10;54.10;;;;;;5105499;28;20028;-42
2021/05/13 05:45:10;;;;;;;0.80;0.80;;;22.10;54.10;;;;;;5098423;28;20072;-47
2021/05/13 05:47:36;;;;;;;0.70;0.70;;;22.00;54.20;;;;;;5101469;28;20020;-42
2021/05/13 05:50:02;;;;;;;0.68;0.68;;;22.10;54.10;;;;;;5105634;28;20383;-43
2021/05/13 05:52:27;;;;;;;0.80;0.80;;;22.00;54.10;;;;;;5104768;28;20024;-42
2021/05/13 05:54:55;;;;;;;0.70;0.70;;;22.10;54.10;;;;;;5107743;28;20031;-42
2021/05/13 05:57:21;;;;;;;0.80;0.80;;;22.00;54.00;;;;;;5103271;28;20090;-43
2021/05/13 05:59:46;;;;;;;0.88;0.60;;;22.00;54.30;;;;;;5103141;28;20024;-44
2021/05/13 06:02:12;;;;;;;0.88;0.88;;;22.00;54.20;;;;;;5101672;28;20040;-43
2021/05/13 06:04:37;;;;;;;0.90;0.90;;;22.00;54.20;;;;;;5105265;28;20027;-42
2021/05/13 06:07:03;;;;;;;0.80;0.80;;;22.00;54.20;;;;;;5102945;28;20383;-42
2021/05/13 06:09:29;;;;;;;0.93;0.85;;;22.00;54.20;;;;;;5102886;28;20027;-42
2021/05/13 06:11:54;;;;;;;2.33;0.98;;;22.00;54.20;;;;;;5100258;28;20035;-43
2021/05/13 06:14:20;;;;;;;1.00;0.90;;;22.10;54.20;;;;;;5108370;28;20027;-43
2021/05/13 06:16:45;;;;;;;0.88;0.85;;;22.00;54.30;;;;;;5106284;28;20020;-42
2021/05/13 06:19:11;;;;;;;0.80;0.80;;;22.00;54.30;;;;;;5105725;28;20573;-43
2021/05/13 06:21:39;;;;;;;1.48;0.70;;;22.00;54.30;;;;;;5087947;28;20124;-42
2021/05/13 06:24:08;;;;;;;0.60;0.60;;;22.00;55.00;;;;;;5103307;28;20027;-43
2021/05/13 06:26:33;;;;;;;0.80;0.80;;;22.00;54.30;;;;;;5103481;28;20127;-41
2021/05/13 06:28:59;;;;;;;0.70;0.70;;;22.00;54.30;;;;;;5109315;28;20102;-42
2021/05/13 06:31:25;;;;;;;0.60;0.60;;;22.00;54.30;;;;;;5106606;28;20023;-44
2021/05/13 06:33:50;;;;;;;0.85;0.85;;;22.00;54.30;;;;;;5109072;28;20028;-43
2021/05/13 06:36:16;;;;;;;0.68;0.68;;;22.00;54.20;;;;;;5106643;28;20019;-40
2021/05/13 06:38:42;;;;;;;0.73;0.70;;;22.00;54.30;;;;;;5109250;28;20119;-41
2021/05/13 06:41:09;;;;;;;0.60;0.60;;;22.00;54.30;;;;;;5103416;28;20549;-41
2021/05/13 06:43:37;;;;;;;1.30;0.77;;;21.90;54.50;;;;;;5107626;28;20023;-41
2021/05/13 06:46:06;;;;;;;0.60;0.52;;;21.80;54.60;;;;;;5102745;28;20094;-39
2021/05/13 06:48:33;;;;;;;0.50;0.50;;;21.80;54.60;;;;;;5105579;28;20098;-41
2021/05/13 06:50:58;;;;;;;0.70;0.70;;;21.80;54.70;;;;;;5105199;28;20082;-42
2021/05/13 06:53:24;;;;;;;0.65;0.50;;;21.80;54.80;;;;;;5102251;28;20510;-43
2021/05/13 06:55:53;;;;;;;0.73;0.73;;;21.90;54.80;;;;;;5108011;28;20028;-42
2021/05/13 06:58:21;;;;;;;0.98;0.77;;;21.80;54.90;;;;;;5111155;28;20028;-45
2021/05/13 07:00:47;;;;;;;0.75;0.73;;;21.80;54.90;;;;;;5082396;28;20023;-42
2021/05/13 07:03:13;;;;;;;1.45;0.73;;;21.80;54.80;;;;;;5111397;28;20012;-38
2021/05/13 07:05:39;;;;;;;0.50;0.40;;;21.80;54.70;;;;;;5104419;28;20040;-43
2021/05/13 07:08:05;;;;;;;0.85;0.70;;;21.80;55.00;;;;;;5114279;28;20022;-43
2021/05/13 07:10:31;;;;;;;1.08;0.80;;;21.80;55.00;;;;;;5112767;28;20040;-43
2021/05/13 07:12:57;;;;;;;0.73;0.70;;;21.80;55.10;;;;;;5110194;28;20095;-43
2021/05/13 07:15:23;;;;;;;0.68;0.55;;;21.80;54.90;;;;;;5091921;28;20024;-42
2021/05/13 07:17:49;;;;;;;0.45;0.45;;;21.90;54.80;;;;;;5103367;28;20054;-42
2021/05/13 07:20:14;;;;;;;0.50;0.50;;;21.90;54.70;;;;;;5090484;28;20056;-43
2021/05/13 07:22:40;;;;;;;0.70;0.70;;;22.00;54.70;;;;;;5109122;28;20058;-41
2021/05/13 07:25:06;;;;;;;0.85;0.70;;;21.90;54.50;;;;;;5110610;28;20038;-43
2021/05/13 07:27:31;;;;;;;0.50;0.50;;;21.90;54.70;;;;;;5111980;28;20081;-42
2021/05/13 07:29:57;;;;;;;0.70;0.70;;;22.00;55.20;;;;;;5093730;28;20020;-44
2021/05/13 07:32:23;;;;;;;2.45;0.80;;;22.00;55.30;;;;;;5111041;28;20426;-43
2021/05/13 07:34:48;;;;;;;0.60;0.50;;;22.00;56.10;;;;;;5110970;28;20027;-43
2021/05/13 07:37:14;;;;;;;0.70;0.70;;;21.90;56.50;;;;;;5105098;28;20058;-43
2021/05/13 07:39:39;;;;;;;1.60;0.93;;;22.00;55.80;;;;;;5108007;28;20397;-41
2021/05/13 07:42:05;;;;;;;0.70;0.70;;;22.00;55.50;;;;;;5087548;28;20078;-44
2021/05/13 07:44:31;;;;;;;3.15;0.60;;;21.90;55.50;;;;;;5113661;28;20455;-42
2021/05/13 07:46:58;;;;;;;0.93;0.70;;;21.90;55.50;;;;;;5113139;28;20036;-40
2021/05/13 07:49:25;;;;;;;0.70;0.50;;;21.90;55.40;;;;;;5112181;28;20028;-42
2021/05/13 07:51:51;;;;;;;5.25;0.75;;;21.90;55.30;;;;;;5077618;28;20044;-42
2021/05/13 07:54:17;;;;;;;1.02;0.60;;;22.00;55.40;;;;;;5112033;28;20077;-41
2021/05/13 07:56:43;;;;;;;0.95;0.90;;;22.00;55.90;;;;;;5110969;28;20063;-42
2021/05/13 07:59:08;;;;;;;1.10;0.93;;;22.00;56.90;;;;;;5113948;28;20524;-41
2021/05/13 08:01:34;;;;;;;1.05;0.80;;;22.00;57.10;;;;;;5110501;28;20387;-41
2021/05/13 08:04:00;;;;;;;30.65;2.55;;;22.00;56.80;;;;;;5095115;28;20020;-40
2021/05/13 08:06:25;;;;;;;16.25;1.35;;;22.00;56.40;;;;;;5111060;28;20547;-42
2021/05/13 08:08:51;;;;;;;8.68;1.70;;;22.00;56.50;;;;;;5108219;28;20023;-42
2021/05/13 08:11:16;;;;;;;4.60;1.20;;;22.00;56.40;;;;;;5113727;28;20023;-43
2021/05/13 08:13:42;;;;;;;10.00;1.20;;;22.10;56.90;;;;;;5072152;28;20042;-46
2021/05/13 08:16:08;;;;;;;12.13;1.33;;;22.10;56.20;;;;;;5086874;28;21527;-45
2021/05/13 08:18:33;;;;;;;13.10;1.20;;;22.10;55.80;;;;;;5089905;28;20044;-44
2021/05/13 08:20:59;;;;;;;8.25;1.20;;;22.20;56.50;;;;;;5091999;28;20540;-43
2021/05/13 08:23:25;;;;;;;9.60;1.20;;;22.20;56.80;;;;;;5098830;28;20490;-45
2021/05/13 08:25:51;;;;;;;2.53;1.02;;;22.10;55.90;;;;;;5100219;28;20073;-43
2021/05/13 08:28:16;;;;;;;9.52;1.23;;;22.10;56.40;;;;;;5099728;28;20099;-42
2021/05/13 08:30:42;;;;;;;5.57;1.00;;;22.20;55.60;;;;;;5099295;28;20072;-43
2021/05/13 08:33:07;;;;;;;6.18;1.20;;;22.20;55.50;;;;;;5100955;28;20043;-45
2021/05/13 08:35:33;;;;;;;14.63;1.30;;;22.30;55.50;;;;;;5095659;28;20054;-41
2021/05/13 08:37:58;;;;;;;7.97;1.10;;;22.40;55.20;;;;;;5097298;28;20044;-40
2021/05/13 08:40:24;;;;;;;6.28;1.20;;;22.40;55.30;;;;;;5101869;28;20035;-40
2021/05/13 08:42:50;;;;;;;5.95;0.90;;;22.30;55.60;;;;;;5104750;28;20080;-40
2021/05/13 08:45:15;;;;;;;5.13;0.82;;;22.00;56.10;;;;;;5082879;28;20747;-40
2021/05/13 08:47:45;;;;;;;4.88;1.33;;;21.80;56.80;;;;;;5095171;28;20072;-41
2021/05/13 08:50:11;;;;;;;3.65;0.90;;;22.00;56.40;;;;;;5098066;28;20040;-41
2021/05/13 08:52:37;;;;;;;1.55;0.70;;;22.10;56.00;;;;;;5095515;28;20490;-41
2021/05/13 08:55:03;;;;;;;2.53;0.80;;;22.10;56.00;;;;;;5096970;28;20051;-43
2021/05/13 08:57:29;;;;;;;2.88;0.80;;;22.20;55.80;;;;;;5097562;28;20027;-40
2021/05/13 08:59:55;;;;;;;2.90;0.88;;;22.20;55.70;;;;;;5100620;28;20590;-40
2021/05/13 09:02:21;;;;;;;5.60;1.05;;;22.10;56.10;;;;;;5090226;28;20028;-41
2021/05/13 09:04:53;;;;;;;3.85;0.80;;;22.30;56.00;;;;;;5084528;28;20554;-40
2021/05/13 09:07:27;;;;;;;2.00;0.70;;;22.40;55.90;;;;;;5096929;28;20028;-41
2021/05/13 09:09:56;;;;;;;3.70;0.82;;;22.30;56.20;;;;;;5100555;28;20107;-38
2021/05/13 09:12:22;;;;;;;2.40;0.82;;;22.40;56.10;;;;;;5101499;28;20040;-41
2021/05/13 09:15:00;;;;;;;2.55;0.70;;;22.50;55.60;;;;;;5080869;28;20121;-42
2021/05/13 09:17:26;;;;;;;2.85;0.80;;;22.50;55.80;;;;;;5090973;28;20071;-41
2021/05/13 09:19:52;;;;;;;4.45;1.15;;;22.40;55.70;;;;;;5097596;28;20060;-42
2021/05/13 09:22:22;;;;;;;5.53;0.90;;;22.40;56.10;;;;;;5095818;28;20088;-42
2021/05/13 09:24:51;;;;;;;1.70;0.73;;;22.50;56.20;;;;;;5098396;28;20094;-41
2021/05/13 09:27:18;;;;;;;4.13;0.80;;;22.50;55.70;;;;;;5097179;28;20027;-41
2021/05/13 09:29:43;;;;;;;3.60;0.88;;;22.50;55.40;;;;;;5097241;28;20016;-47
2021/05/13 09:32:21;;;;;;;2.53;0.70;;;22.60;55.20;;;;;;5102096;28;20132;-43
2021/05/13 09:34:47;;;;;;;4.30;0.70;;;22.50;55.00;;;;;;5096333;28;20093;-43
2021/05/13 09:37:12;;;;;;;3.30;0.70;;;22.40;54.90;;;;;;5095523;28;20474;-43
2021/05/13 09:39:48;;;;;;;4.05;0.75;;;22.40;54.80;;;;;;5077610;28;20074;-42
2021/05/13 09:42:18;;;;;;;1.48;0.70;;;22.40;55.00;;;;;;5077275;28;20024;-41
2021/05/13 09:44:44;;;;;;;3.40;0.60;;;22.40;54.90;;;;;;5076288;28;20036;-40
2021/05/13 09:47:20;;;;;;;3.22;0.80;;;22.30;55.00;;;;;;5068233;28;20032;-40
2021/05/13 09:50:04;;;;;;;3.22;0.70;;;22.50;55.00;;;;;;5057871;28;20044;-41
2021/05/13 09:52:45;;;;;;;0.80;0.65;;;22.40;55.00;;;;;;5082730;28;20043;-41
2021/05/13 09:55:27;;;;;;;1.98;0.93;;;22.40;55.20;;;;;;5076583;28;20032;-40
2021/05/13 09:58:05;;;;;;;2.35;0.60;;;22.40;55.10;;;;;;5081443;28;20566;-41
2021/05/13 10:00:38;;;;;;;3.08;0.68;;;22.40;55.20;;;;;;5085138;28;20498;-41
2021/05/13 10:03:10;;;;;;;1.17;0.70;;;22.30;55.50;;;;;;5078809;28;20024;-42
2021/05/13 10:05:37;;;;;;;2.58;0.70;;;22.40;55.40;;;;;;5078981;28;20029;-42
2021/05/13 10:08:02;;;;;;;1.02;0.47;;;22.50;55.30;;;;;;5063003;28;20027;-41
2021/05/13 10:10:29;;;;;;;0.82;0.50;;;22.50;55.60;;;;;;5085140;28;20111;-41
2021/05/13 10:12:57;;;;;;;1.30;0.75;;;22.50;55.20;;;;;;4730022;28;10000643;-45
2021/05/13 10:15:25;;;;;;;2.90;0.60;;;22.50;55.10;;;;;;5056329;28;20119;-46
2021/05/13 10:17:51;;;;;;;2.20;0.68;;;22.40;55.30;;;;;;5049545;28;20654;-44
2021/05/13 10:20:19;;;;;;;2.03;0.70;;;22.40;55.20;;;;;;5065752;28;20035;-44
2021/05/13 10:22:45;;;;;;;1.65;0.60;;;22.50;53.90;;;;;;5046771;28;20027;-44
2021/05/13 10:25:26;;;;;;;2.03;0.50;;;22.70;53.40;;;;;;5042830;28;20036;-44
2021/05/13 10:27:56;;;;;;;1.52;0.63;;;22.80;53.50;;;;;;5074541;28;20479;-44
2021/05/13 10:30:27;;;;;;;1.50;0.80;;;22.90;53.50;;;;;;5076133;28;20060;-52
2021/05/13 10:33:14;;;;;;;0.95;0.88;;;23.10;53.10;;;;;;5076076;28;20027;-47
2021/05/13 10:35:59;;;;;;;1.10;0.68;;;22.70;53.80;;;;;;5071774;28;20178;-44
2021/05/13 10:38:53;;;;;;;3.13;0.95;;;22.60;54.10;;;;;;5068975;28;20510;-45
2021/05/13 10:41:31;;;;;;;1.90;0.70;;;22.80;53.70;;;;;;5054209;28;20114;-44
2021/05/13 10:44:17;;;;;;;1.77;0.75;;;22.90;53.30;;;;;;5069344;28;20063;-44
2021/05/13 10:46:55;;;;;;;1.13;0.73;;;23.10;52.80;;;;;;5061906;28;20044;-48
2021/05/13 10:49:23;;;;;;;1.35;0.60;;;23.10;53.10;;;;;;5068989;28;20102;-46
2021/05/13 10:51:50;;;;;;;3.15;0.70;;;23.10;53.20;;;;;;5077461;28;20123;-42
2021/05/13 10:54:28;;;;;;;2.88;0.70;;;23.10;53.20;;;;;;5054330;28;20024;-42
2021/05/13 10:57:20;;;;;;;2.65;0.90;;;23.00;53.50;;;;;;5081619;28;20087;-42
2021/05/13 11:00:05;;;;;;;1.35;0.60;;;23.00;53.70;;;;;;5078042;28;20030;-42
2021/05/13 11:02:49;;;;;;;1.80;0.70;;;22.80;54.10;;;;;;5073571;28;20021;-40
2021/05/13 11:05:27;;;;;;;;;;;23.00;53.70;;;;;;5074084;28;20081;-41
2021/05/13 11:07:53;;;;;;;2.10;0.80;;;23.10;53.30;;;;;;5079293;28;20363;-41
2021/05/13 11:10:19;;;;;;;1.27;0.50;;;23.00;53.60;;;;;;5054518;28;20565;-40
2021/05/13 11:12:44;;;;;;;3.00;1.08;;;23.10;53.20;;;;;;5074148;28;20127;-41
2021/05/13 11:20:20;;;;;;;3.72;3.42;;;23.30;52.50;;;;;;5076775;28;20028;-44
2021/05/13 11:23:07;;;;;;;3.28;2.88;;;23.40;52.70;;;;;;5066776;28;20032;-43
2021/05/13 11:25:50;;;;;;;3.42;2.60;;;23.50;52.70;;;;;;5072076;28;20036;-45
2021/05/13 11:28:16;;;;;;;2.25;2.00;;;23.50;52.60;;;;;;5071176;28;20498;-44
2021/05/13 11:30:41;;;;;;;2.25;1.98;;;23.60;52.40;;;;;;5076827;28;20032;-45
2021/05/13 11:33:08;;;;;;;2.20;1.90;;;23.60;52.00;;;;;;5074287;28;20044;-44
2021/05/13 11:35:34;;;;;;;2.35;2.15;;;23.50;52.30;;;;;;5074526;28;20056;-44
2021/05/13 11:38:00;;;;;;;1.92;1.83;;;23.50;52.20;;;;;;5084323;28;20080;-44
2021/05/13 11:40:26;;;;;;;2.17;1.75;;;23.60;52.50;;;;;;5061588;28;20055;-44
2021/05/13 11:42:53;;;;;;;3.33;1.67;;;23.60;52.30;;;;;;5092618;28;20055;-45
2021/05/13 11:45:20;;;;;;;1.70;1.60;;;23.70;52.20;;;;;;5085206;28;20096;-44
2021/05/13 11:47:46;;;;;;;2.75;1.50;;;23.60;52.00;;;;;;5092063;28;20080;-42
2021/05/13 11:50:28;;;;;;;3.67;1.85;;;23.70;52.10;;;;;;5093007;28;20032;-43
2021/05/13 11:53:14;;;;;;;1.60;1.50;;;23.70;51.90;;;;;;5096978;28;20093;-44
2021/05/13 11:55:40;;;;;;;1.70;1.60;;;23.60;51.90;;;;;;5092694;28;20028;-44
2021/05/13 11:58:07;;;;;;;1.90;1.80;;;23.70;51.10;;;;;;5076511;28;20103;-40
2021/05/13 12:00:33;;;;;;;2.05;1.85;;;23.70;51.00;;;;;;5081433;28;20478;-45
2021/05/13 12:03:15;;;;;;;2.35;1.95;;;23.70;49.70;;;;;;5090210;28;20069;-43
2021/05/13 12:05:53;;;;;;;2.53;1.85;;;23.70;50.90;;;;;;5095371;28;20185;-44
2021/05/13 12:08:22;;;;;;;1.42;1.33;;;23.70;50.90;;;;;;5084199;28;20036;-43
2021/05/13 12:10:49;;;;;;;3.42;1.73;;;23.70;51.20;;;;;;5095931;28;20035;-44
2021/05/13 12:13:15;;;;;;;3.47;1.25;;;23.60;51.60;;;;;;5089354;28;20126;-43
2021/05/13 12:15:40;;;;;;;1.58;1.48;;;23.40;52.10;;;;;;5094970;28;20099;-43
2021/05/13 12:18:06;;;;;;;1.20;1.02;;;23.50;52.60;;;;;;5075267;28;20512;-42
2021/05/13 12:20:32;;;;;;;1.83;1.10;;;23.60;52.10;;;;;;5077994;28;20024;-44
2021/05/13 12:23:00;;;;;;;2.97;1.33;;;23.60;52.00;;;;;;5074011;28;20036;-42
2021/05/13 12:25:26;;;;;;;3.28;1.10;;;23.70;51.70;;;;;;5078149;28;20103;-41
2021/05/13 12:27:51;;;;;;;1.30;1.20;;;23.70;51.40;;;;;;5096488;28;20059;-40
2021/05/13 12:30:18;;;;;;;1.80;1.20;;;23.70;51.80;;;;;;5058930;28;20055;-45
2021/05/13 12:32:44;;;;;;;1.20;1.10;;;23.70;52.20;;;;;;5077236;28;20091;-43
2021/05/13 12:35:31;;;;;;;1.42;1.10;;;23.70;51.80;;;;;;5094069;28;20597;-44
2021/05/13 12:38:22;;;;;;;0.88;0.88;;;23.60;52.00;;;;;;5093516;28;20119;-44
2021/05/13 12:40:48;;;;;;;1.65;1.20;;;23.60;52.20;;;;;;5093716;28;20085;-44
2021/05/13 12:43:16;;;;;;;2.53;1.20;;;23.60;52.20;;;;;;5093862;28;20104;-43
2021/05/13 12:45:46;;;;;;;2.75;1.45;;;23.70;52.20;;;;;;5099875;28;20027;-43
2021/05/13 12:48:11;;;;;;;4.97;1.10;;;23.70;51.90;;;;;;5096028;28;20028;-43
2021/05/13 12:50:37;;;;;;;3.58;1.00;;;23.70;51.70;;;;;;5077853;28;20036;-42
2021/05/13 12:53:15;;;;;;;1.15;1.00;;;23.80;51.80;;;;;;5092196;28;20043;-40
2021/05/13 12:55:42;;;;;;;8.05;1.17;;;23.80;51.70;;;;;;5094934;28;20020;-41
2021/05/13 12:58:09;;;;;;;1.60;1.30;;;23.90;51.70;;;;;;5095748;28;20562;-42
2021/05/13 13:00:35;;;;;;;8.32;3.38;;;23.90;51.70;;;;;;5091027;28;20458;-41